createdAt,value
2019-02-22T00:01:08.388Z,27.55
2019-02-22T00:03:42.661Z,29.45
2019-02-22T00:06:17.741Z,26.55
2019-02-22T00:08:51.996Z,26.73
2019-02-22T00:11:26.290Z,27.30
2019-02-22T00:14:00.597Z,27.85
2019-02-22T00:16:34.847Z,24.52
2019-02-22T00:19:09.184Z,26.75
2019-02-22T00:21:43.284Z,22.35
2019-02-22T00:24:17.416Z,24.15
2019-02-22T00:26:52.448Z,22.98
2019-02-22T00:29:26.695Z,27.35
2019-02-22T00:32:01.124Z,20.60
2019-02-22T00:34:35.278Z,22.65
2019-02-22T00:37:09.489Z,22.67
2019-02-22T00:39:43.679Z,22.42
2019-02-22T00:42:17.843Z,20.52
2019-02-22T00:44:52.224Z,21.93
2019-02-22T00:47:26.565Z,23.35
2019-02-22T00:50:00.505Z,21.87
2019-02-22T00:52:35.608Z,22.22
2019-02-22T00:55:09.740Z,24.95
2019-02-22T00:57:44.021Z,23.60
2019-02-22T01:00:18.424Z,23.57
2019-02-22T01:02:52.645Z,24.32
2019-02-22T01:05:26.917Z,28.17
2019-02-22T01:08:01.317Z,23.10
2019-02-22T01:10:35.621Z,26.40
2019-02-22T01:13:09.904Z,26.95
2019-02-22T01:15:44.191Z,22.48
2019-02-22T01:18:18.452Z,21.73
2019-02-22T01:20:54.633Z,24.80
2019-02-22T01:23:28.661Z,26.75
2019-02-22T01:26:03.094Z,23.02
2019-02-22T01:28:37.250Z,26.33
2019-02-22T01:31:11.664Z,23.27
2019-02-22T01:33:45.899Z,20.32
2019-02-22T01:36:20.332Z,23.32
2019-02-22T01:38:54.449Z,22.87
2019-02-22T01:41:28.945Z,26.37
2019-02-22T01:44:03.002Z,27.65
2019-02-22T01:46:37.343Z,29.42
2019-02-22T01:49:11.385Z,28.00
2019-02-22T01:51:45.603Z,28.75
2019-02-22T01:54:19.797Z,31.02
2019-02-22T01:56:54.732Z,29.52
2019-02-22T01:59:28.923Z,31.00
2019-02-22T02:02:03.390Z,29.57
2019-02-22T02:04:37.620Z,30.52
2019-02-22T02:07:30.225Z,31.00
2019-02-22T02:10:04.915Z,33.63
2019-02-22T02:12:39.256Z,33.10
2019-02-22T02:15:13.630Z,34.60
2019-02-22T02:17:49.387Z,34.23
2019-02-22T02:20:23.659Z,34.30
2019-02-22T02:22:57.993Z,37.15
2019-02-22T02:25:32.333Z,39.78
2019-02-22T02:28:06.724Z,42.73
2019-02-22T02:30:40.941Z,41.02
2019-02-22T02:33:15.326Z,45.65
2019-02-22T02:35:50.537Z,41.80
2019-02-22T02:38:25.822Z,46.08
2019-02-22T02:41:09.787Z,43.65
2019-02-22T02:43:36.180Z,50.23
2019-02-22T02:46:10.441Z,51.40
2019-02-22T02:48:44.481Z,55.83
2019-02-22T02:51:18.727Z,81.37
2019-02-22T02:53:53.214Z,103.30
2019-02-22T02:56:27.485Z,112.83
2019-02-22T02:59:01.836Z,131.05
2019-02-22T03:01:35.977Z,141.57
2019-02-22T03:04:10.029Z,129.55
2019-02-22T03:06:51.780Z,133.87
2019-02-22T03:09:26.926Z,122.00
2019-02-22T03:12:01.032Z,125.27
2019-02-22T03:14:35.439Z,121.30
2019-02-22T03:17:09.615Z,116.55
2019-02-22T03:19:43.731Z,115.05
2019-02-22T03:22:18.074Z,115.42
2019-02-22T03:24:53.687Z,122.67
2019-02-22T03:27:28.877Z,129.10
2019-02-22T03:30:02.980Z,119.55
2019-02-22T03:32:37.555Z,125.65
2019-02-22T03:35:12.324Z,132.37
2019-02-22T03:37:47.060Z,130.90
2019-02-22T03:40:21.167Z,126.75
2019-02-22T03:42:55.272Z,121.47
2019-02-22T03:45:30.842Z,181.07
2019-02-22T03:48:05.277Z,162.12
2019-02-22T03:50:39.556Z,184.72
2019-02-22T03:53:20.638Z,175.93
2019-02-22T03:55:54.953Z,196.60
2019-02-22T03:58:29.265Z,216.60
2019-02-22T04:01:03.627Z,201.70
2019-02-22T04:03:37.666Z,220.42
2019-02-22T04:06:12.240Z,228.02
2019-02-22T04:08:46.537Z,219.65
2019-02-22T04:11:20.992Z,205.22
2019-02-22T04:13:55.117Z,212.10
2019-02-22T04:16:29.295Z,202.47
2019-02-22T04:19:03.653Z,229.10
2019-02-22T04:21:37.814Z,224.10
2019-02-22T04:24:12.034Z,209.60
2019-02-22T04:26:47.352Z,213.22
2019-02-22T04:29:21.799Z,223.43
2019-02-22T04:31:56.528Z,211.50
2019-02-22T04:34:30.543Z,237.17
2019-02-22T04:37:05.128Z,228.25
2019-02-22T04:39:39.146Z,234.40
2019-02-22T04:42:13.291Z,222.35
2019-02-22T04:44:47.686Z,220.93
2019-02-22T04:47:21.730Z,218.30
2019-02-22T04:49:55.958Z,203.47
2019-02-22T04:52:29.996Z,209.43
2019-02-22T04:55:04.193Z,198.05
2019-02-22T04:57:38.125Z,200.62
2019-02-22T05:00:12.765Z,187.05
2019-02-22T05:02:47.069Z,182.17
2019-02-22T05:05:21.244Z,180.85
2019-02-22T05:07:55.397Z,421.22
2019-02-22T05:10:29.672Z,334.35
2019-02-22T05:13:04.276Z,319.52
2019-02-22T05:15:38.681Z,268.50
2019-02-22T05:18:12.844Z,238.10
2019-02-22T05:20:48.586Z,255.43
2019-02-22T05:23:22.930Z,243.05
2019-02-22T05:25:57.239Z,213.35
2019-02-22T05:28:32.549Z,198.75
2019-02-22T05:31:06.836Z,201.95
2019-02-22T05:33:41.130Z,212.40
2019-02-22T05:36:15.595Z,208.95
2019-02-22T05:38:49.940Z,189.03
2019-02-22T05:41:24.170Z,193.13
2019-02-22T05:43:59.586Z,187.57
2019-02-22T05:46:33.687Z,182.50
2019-02-22T05:49:08.720Z,172.28
2019-02-22T05:51:42.966Z,172.17
2019-02-22T05:54:17.186Z,173.15
2019-02-22T05:56:55.192Z,183.55
2019-02-22T05:59:28.409Z,172.87
2019-02-22T06:02:02.748Z,176.15
2019-02-22T06:04:38.034Z,170.15
2019-02-22T06:07:14.435Z,162.97
2019-02-22T06:09:48.282Z,155.82
2019-02-22T06:12:33.915Z,145.80
2019-02-22T06:14:58.232Z,206.05
2019-02-22T06:17:32.550Z,145.80
2019-02-22T06:20:06.854Z,143.95
2019-02-22T06:22:42.044Z,140.32
2019-02-22T06:25:16.282Z,134.80
2019-02-22T06:27:50.605Z,135.40
2019-02-22T06:30:24.725Z,138.80
2019-02-22T06:32:58.709Z,134.95
2019-02-22T06:35:32.630Z,140.00
2019-02-22T06:38:07.070Z,132.32
2019-02-22T06:40:41.061Z,135.32
2019-02-22T06:43:15.125Z,128.27
2019-02-22T06:45:49.311Z,130.60
2019-02-22T06:48:23.587Z,124.78
2019-02-22T06:50:57.580Z,123.20
2019-02-22T06:53:32.860Z,119.37
2019-02-22T06:56:08.173Z,122.07
2019-02-22T06:58:43.709Z,121.72
2019-02-22T07:01:17.881Z,117.53
2019-02-22T07:03:51.882Z,117.17
2019-02-22T07:06:26.096Z,120.22
2019-02-22T07:09:00.218Z,115.80
2019-02-22T07:11:57.574Z,117.10
2019-02-22T07:14:31.954Z,118.95
2019-02-22T07:17:06.417Z,116.88
2019-02-22T07:19:40.500Z,109.92
2019-02-22T07:22:14.761Z,106.00
2019-02-22T07:24:48.955Z,111.28
2019-02-22T07:27:23.154Z,109.07
2019-02-22T07:29:57.225Z,109.25
2019-02-22T07:32:31.477Z,106.03
2019-02-22T07:35:05.714Z,105.35
2019-02-22T07:37:40.069Z,108.37
2019-02-22T07:40:15.289Z,103.72
2019-02-22T07:42:49.604Z,108.67
2019-02-22T07:45:23.826Z,100.18
2019-02-22T07:47:58.365Z,106.65
2019-02-22T07:50:32.326Z,100.18
2019-02-22T07:53:06.559Z,100.92
2019-02-22T07:55:40.805Z,103.60
2019-02-22T07:58:14.797Z,101.92
2019-02-22T08:00:48.823Z,105.60
2019-02-22T08:03:24.085Z,99.50
2019-02-22T08:05:58.093Z,104.00
2019-02-22T08:08:32.214Z,101.65
2019-02-22T08:11:06.572Z,99.58
2019-02-22T08:13:40.736Z,95.70
2019-02-22T08:16:14.662Z,99.72
2019-02-22T08:18:48.719Z,95.12
2019-02-22T08:21:24.281Z,96.28
2019-02-22T08:23:58.557Z,99.40
2019-02-22T08:26:33.805Z,97.55
2019-02-22T08:29:07.778Z,89.00
2019-02-22T08:31:42.858Z,96.10
2019-02-22T08:34:16.850Z,92.40
2019-02-22T08:36:51.092Z,95.47
2019-02-22T08:39:25.307Z,92.37
2019-02-22T08:41:59.693Z,95.12
2019-02-22T08:44:34.126Z,94.37
2019-02-22T08:47:08.462Z,89.95
2019-02-22T08:49:43.935Z,94.00
2019-02-22T08:52:18.337Z,92.75
2019-02-22T08:54:55.357Z,91.02
2019-02-22T08:57:30.906Z,90.85
2019-02-22T09:00:05.164Z,86.45
2019-02-22T09:02:40.848Z,85.62
2019-02-22T09:05:14.829Z,86.10
2019-02-22T09:07:49.203Z,89.20
2019-02-22T09:10:42.161Z,86.30
2019-02-22T09:13:43.123Z,85.67
2019-02-22T09:16:09.576Z,80.70
2019-02-22T09:18:44.548Z,80.90
2019-02-22T09:21:18.917Z,84.00
2019-02-22T09:23:53.261Z,85.07
2019-02-22T09:26:27.399Z,85.65
2019-02-22T09:29:02.872Z,82.55
2019-02-22T09:31:37.235Z,84.52
2019-02-22T09:34:11.619Z,81.87
2019-02-22T09:36:47.926Z,78.67
2019-02-22T09:39:22.044Z,82.85
2019-02-22T09:41:56.539Z,76.77
2019-02-22T09:44:32.239Z,77.10
2019-02-22T09:47:06.372Z,73.60
2019-02-22T09:49:40.688Z,74.75
2019-02-22T09:52:15.092Z,76.50
2019-02-22T09:54:49.447Z,72.90
2019-02-22T09:57:23.887Z,72.80
2019-02-22T09:59:57.925Z,74.25
2019-02-22T10:02:32.294Z,72.27
2019-02-22T10:05:06.715Z,76.17
2019-02-22T10:07:41.042Z,77.15
2019-02-22T10:10:15.347Z,75.40
2019-02-22T10:12:49.569Z,78.20
2019-02-22T10:15:24.057Z,76.02
2019-02-22T10:17:58.280Z,72.30
2019-02-22T10:20:33.424Z,77.80
2019-02-22T10:23:08.564Z,74.27
2019-02-22T10:25:43.791Z,71.12
2019-02-22T10:28:18.310Z,73.80
2019-02-22T10:30:52.548Z,67.65
2019-02-22T10:33:36.196Z,77.47
2019-02-22T10:36:02.703Z,67.27
2019-02-22T10:38:36.947Z,71.07
2019-02-22T10:41:10.942Z,68.25
2019-02-22T10:43:45.157Z,68.57
2019-02-22T10:46:22.000Z,65.57
2019-02-22T10:48:55.394Z,62.60
2019-02-22T10:51:29.480Z,66.07
2019-02-22T10:54:03.478Z,65.22
2019-02-22T10:56:39.323Z,63.02
2019-02-22T10:59:14.504Z,61.80
2019-02-22T11:01:49.782Z,62.40
2019-02-22T11:04:24.060Z,60.75
2019-02-22T11:06:58.149Z,61.18
2019-02-22T11:09:32.460Z,61.13
2019-02-22T11:12:06.751Z,60.30
2019-02-22T11:14:40.647Z,60.28
2019-02-22T11:17:14.808Z,57.40
2019-02-22T11:19:49.127Z,58.65
2019-02-22T11:22:23.473Z,59.23
2019-02-22T11:24:57.907Z,61.83
2019-02-22T11:27:31.951Z,61.70
2019-02-22T11:30:06.257Z,59.18
2019-02-22T11:32:41.076Z,56.08
2019-02-22T11:35:15.599Z,59.77
2019-02-22T11:37:49.771Z,57.95
2019-02-22T11:40:24.161Z,58.60
2019-02-22T11:42:59.004Z,54.00
2019-02-22T11:45:34.344Z,57.58
2019-02-22T11:48:09.597Z,62.38
2019-02-22T11:50:43.951Z,61.18
2019-02-22T11:53:18.219Z,61.65
2019-02-22T11:55:52.331Z,62.08
2019-02-22T11:58:26.934Z,56.58
2019-02-22T12:01:01.433Z,54.15
2019-02-22T12:03:35.767Z,59.03
2019-02-22T12:06:10.169Z,52.65
2019-02-22T12:08:45.345Z,54.18
2019-02-22T12:11:19.614Z,53.95
2019-02-22T12:13:54.033Z,56.35
2019-02-22T12:16:28.137Z,58.45
2019-02-22T12:19:04.166Z,54.03
2019-02-22T12:21:38.673Z,52.30
2019-02-22T12:24:15.127Z,57.90
2019-02-22T12:26:49.828Z,50.63
2019-02-22T12:29:24.236Z,51.50
2019-02-22T12:32:00.601Z,52.50
2019-02-22T12:34:34.615Z,50.83
2019-02-22T12:37:09.445Z,51.98
2019-02-22T12:39:43.755Z,48.42
2019-02-22T12:42:18.266Z,50.23
2019-02-22T12:45:02.470Z,45.90
2019-02-22T12:47:33.015Z,48.68
2019-02-22T12:50:07.273Z,50.80
2019-02-22T12:52:41.593Z,50.70
2019-02-22T12:55:15.993Z,50.03
2019-02-22T12:57:50.203Z,55.67
2019-02-22T13:00:26.377Z,50.90
2019-02-22T13:03:02.595Z,52.13
2019-02-22T13:05:36.893Z,48.13
2019-02-22T13:08:13.580Z,49.80
2019-02-22T13:10:47.915Z,53.10
2019-02-22T13:13:22.207Z,49.98
2019-02-22T13:15:56.455Z,51.35
2019-02-22T13:18:31.380Z,51.65
2019-02-22T13:21:05.542Z,53.50
2019-02-22T13:23:39.701Z,54.38
2019-02-22T13:26:13.816Z,50.67
2019-02-22T13:28:48.081Z,52.65
2019-02-22T13:31:29.784Z,49.83
2019-02-22T13:33:58.131Z,48.15
2019-02-22T13:36:33.249Z,48.40
2019-02-22T13:39:08.396Z,46.53
2019-02-22T13:41:43.171Z,49.98
2019-02-22T13:44:17.323Z,46.18
2019-02-22T13:46:51.535Z,48.83
2019-02-22T13:49:25.443Z,50.20
2019-02-22T13:51:59.795Z,47.27
2019-02-22T13:54:34.164Z,47.67
2019-02-22T13:57:08.340Z,47.55
2019-02-22T13:59:42.746Z,50.80
2019-02-22T14:02:16.978Z,46.42
2019-02-22T14:04:52.169Z,52.40
2019-02-22T14:07:28.307Z,46.25
2019-02-22T14:10:07.268Z,48.28
2019-02-22T14:12:46.067Z,46.63
2019-02-22T14:15:24.176Z,46.18
2019-02-22T14:18:00.174Z,46.00
2019-02-22T14:20:34.430Z,47.43
2019-02-22T14:23:08.390Z,44.08
2019-02-22T14:25:42.842Z,47.88
2019-02-22T14:28:17.147Z,46.73
2019-02-22T14:30:51.212Z,45.60
2019-02-22T14:33:25.410Z,43.87
2019-02-22T14:35:59.498Z,46.02
2019-02-22T14:38:33.702Z,45.52
2019-02-22T14:41:08.109Z,48.68
2019-02-22T14:43:42.207Z,47.73
2019-02-22T14:46:25.510Z,46.83
2019-02-22T14:48:53.038Z,47.55
2019-02-22T14:51:27.072Z,46.20
2019-02-22T14:54:01.440Z,45.05
2019-02-22T14:56:36.708Z,47.10
2019-02-22T14:59:10.781Z,45.65
2019-02-22T15:01:44.947Z,46.65
2019-02-22T15:04:19.301Z,48.60
2019-02-22T15:06:55.727Z,46.20
2019-02-22T15:09:29.405Z,48.95
2019-02-22T15:12:03.535Z,44.60
2019-02-22T15:14:37.647Z,45.40
2019-02-22T15:17:22.595Z,47.90
2019-02-22T15:19:56.830Z,44.85
2019-02-22T15:22:31.661Z,44.73
2019-02-22T15:25:06.049Z,45.60
2019-02-22T15:27:45.253Z,47.15
2019-02-22T15:30:19.572Z,46.25
2019-02-22T15:32:53.686Z,46.25
2019-02-22T15:35:27.732Z,47.13
2019-02-22T15:38:01.802Z,46.45
2019-02-22T15:40:36.401Z,50.63
2019-02-22T15:43:10.451Z,49.45
2019-02-22T15:45:47.050Z,48.87
2019-02-22T15:48:20.280Z,45.90
2019-02-22T15:50:54.241Z,46.80
2019-02-22T15:53:28.211Z,47.80
2019-02-22T15:56:02.431Z,43.83
2019-02-22T15:58:36.748Z,41.88
2019-02-22T16:01:10.973Z,45.98
2019-02-22T16:03:55.660Z,43.65
2019-02-22T16:06:32.282Z,46.37
2019-02-22T16:09:07.444Z,45.78
2019-02-22T16:11:43.359Z,48.65
2019-02-22T16:14:17.607Z,45.30
2019-02-22T16:16:52.782Z,46.85
2019-02-22T16:19:26.790Z,49.08
2019-02-22T16:22:01.286Z,43.65
2019-02-22T16:24:35.537Z,46.05
2019-02-22T16:27:09.745Z,45.90
2019-02-22T16:29:43.843Z,44.85
2019-02-22T16:32:18.019Z,42.78
2019-02-22T16:34:53.280Z,45.95
2019-02-22T16:37:27.618Z,48.40
2019-02-22T16:40:01.594Z,49.18
2019-02-22T16:42:37.106Z,42.55
2019-02-22T16:45:12.132Z,41.48
2019-02-22T16:47:46.506Z,44.18
2019-02-22T16:50:21.847Z,48.00
2019-02-22T16:52:57.212Z,47.85
2019-02-22T16:55:31.624Z,49.08
2019-02-22T16:58:05.965Z,40.25
2019-02-22T17:00:40.301Z,43.78
2019-02-22T17:03:14.726Z,46.20
2019-02-22T17:05:49.129Z,41.92
2019-02-22T17:08:23.249Z,45.40
2019-02-22T17:10:58.295Z,42.60
2019-02-22T17:13:32.710Z,42.90
2019-02-22T17:16:06.773Z,44.65
2019-02-22T17:18:41.779Z,45.12
2019-02-22T17:21:16.243Z,41.98
2019-02-22T17:23:50.695Z,40.23
2019-02-22T17:26:24.850Z,43.13
2019-02-22T17:28:59.283Z,46.60
2019-02-22T17:31:33.369Z,46.28
2019-02-22T17:34:07.896Z,41.95
2019-02-22T17:36:42.065Z,43.33
2019-02-22T17:39:16.480Z,43.70
2019-02-22T17:41:50.880Z,41.60
2019-02-22T17:44:24.860Z,43.63
2019-02-22T17:46:59.071Z,41.60
2019-02-22T17:49:34.284Z,44.38
2019-02-22T17:52:08.483Z,42.73
2019-02-22T17:54:42.501Z,47.35
2019-02-22T17:57:16.864Z,42.65
2019-02-22T17:59:51.067Z,44.70
2019-02-22T18:02:25.075Z,42.23
2019-02-22T18:04:59.350Z,42.85
2019-02-22T18:07:33.434Z,45.30
2019-02-22T18:10:07.921Z,41.45
2019-02-22T18:12:42.338Z,43.55
2019-02-22T18:15:16.761Z,41.40
2019-02-22T18:17:50.892Z,41.28
2019-02-22T18:20:25.345Z,42.30
2019-02-22T18:22:59.522Z,43.63
2019-02-22T18:25:33.760Z,42.58
2019-02-22T18:28:08.248Z,43.80
2019-02-22T18:30:42.498Z,42.55
2019-02-22T18:33:16.786Z,44.27
2019-02-22T18:35:51.021Z,41.77
2019-02-22T18:38:25.086Z,43.35
2019-02-22T18:40:59.220Z,46.37
2019-02-22T18:43:33.564Z,45.95
2019-02-22T18:46:07.956Z,45.38
2019-02-22T18:48:43.177Z,40.23
2019-02-22T18:51:18.120Z,46.35
2019-02-22T18:53:52.123Z,45.28
2019-02-22T18:56:26.398Z,41.92
2019-02-22T18:59:01.773Z,44.27
2019-02-22T19:01:35.964Z,40.38
2019-02-22T19:04:10.301Z,43.38
2019-02-22T19:06:45.427Z,43.15
2019-02-22T19:09:20.167Z,44.25
2019-02-22T19:11:54.235Z,42.17
2019-02-22T19:14:28.936Z,42.13
2019-02-22T19:17:03.086Z,41.92
2019-02-22T19:19:38.537Z,43.75
2019-02-22T19:22:12.766Z,43.65
2019-02-22T19:24:47.112Z,42.62
2019-02-22T19:27:21.278Z,43.83
2019-02-22T19:29:55.538Z,44.30
2019-02-22T19:32:29.450Z,43.48
2019-02-22T19:35:03.776Z,40.75
2019-02-22T19:37:38.015Z,41.13
2019-02-22T19:40:14.645Z,40.75
2019-02-22T19:42:48.711Z,44.25
2019-02-22T19:45:23.282Z,41.65
2019-02-22T19:47:57.416Z,42.65
2019-02-22T19:50:41.059Z,40.92
2019-02-22T19:53:08.279Z,39.98
2019-02-22T19:55:42.868Z,40.38
2019-02-22T19:58:17.151Z,38.70
2019-02-22T20:00:52.118Z,40.92
2019-02-22T20:03:26.267Z,42.45
2019-02-22T20:06:00.486Z,36.98
2019-02-22T20:08:36.082Z,41.02
2019-02-22T20:11:10.308Z,39.55
2019-02-22T20:13:46.417Z,42.00
2019-02-22T20:16:20.561Z,41.85
2019-02-22T20:18:54.600Z,39.48
2019-02-22T20:21:28.698Z,40.73
2019-02-22T20:24:03.174Z,37.65
2019-02-22T20:26:37.275Z,36.53
2019-02-22T20:29:11.717Z,39.23
2019-02-22T20:31:45.875Z,36.93
2019-02-22T20:34:19.874Z,37.98
2019-02-22T20:36:54.109Z,38.63
2019-02-22T20:39:29.221Z,38.28
2019-02-22T20:42:03.495Z,38.50
2019-02-22T20:44:39.776Z,39.95
2019-02-22T20:47:14.034Z,39.65
2019-02-22T20:49:48.000Z,40.48
2019-02-22T20:52:22.110Z,38.20
2019-02-22T20:54:56.469Z,38.35
2019-02-22T20:57:30.656Z,36.80
2019-02-22T21:00:04.943Z,37.80
2019-02-22T21:02:40.007Z,36.00
2019-02-22T21:05:14.409Z,37.38
2019-02-22T21:07:48.632Z,35.20
2019-02-22T21:10:22.687Z,34.78
2019-02-22T21:12:56.921Z,36.65
2019-02-22T21:15:30.954Z,37.08
2019-02-22T21:18:15.661Z,37.05
2019-02-22T21:20:41.515Z,37.60
2019-02-22T21:23:15.953Z,35.73
2019-02-22T21:25:50.070Z,37.25
2019-02-22T21:28:24.229Z,34.45
2019-02-22T21:30:58.529Z,37.98
2019-02-22T21:33:32.731Z,35.23
2019-02-22T21:36:08.166Z,35.20
2019-02-22T21:38:43.611Z,36.58
2019-02-22T21:41:17.835Z,32.75
2019-02-22T21:43:52.243Z,36.95
2019-02-22T21:46:28.751Z,35.35
2019-02-22T21:49:02.345Z,34.43
2019-02-22T21:51:36.547Z,34.90
2019-02-22T21:54:10.866Z,36.80
2019-02-22T21:56:45.163Z,36.08
2019-02-22T21:59:19.391Z,36.20
2019-02-22T22:01:53.654Z,35.35
2019-02-22T22:04:28.883Z,34.95
2019-02-22T22:07:03.113Z,35.85
2019-02-22T22:09:35.664Z,38.58
2019-02-22T22:14:42.531Z,34.40
2019-02-22T22:17:16.976Z,34.83
2019-02-22T22:19:51.227Z,36.68
2019-02-22T22:22:25.501Z,38.17
2019-02-22T22:25:01.746Z,36.25
2019-02-22T22:27:37.617Z,35.88
2019-02-22T22:30:12.752Z,36.03
2019-02-22T22:32:46.979Z,35.83
2019-02-22T22:35:21.294Z,36.60
2019-02-22T22:37:55.464Z,34.58
2019-02-22T22:40:29.710Z,37.03
2019-02-22T22:43:04.806Z,36.30
2019-02-22T22:45:39.242Z,35.75
2019-02-22T22:48:13.652Z,36.05
2019-02-22T22:50:47.745Z,38.78
2019-02-22T22:53:22.050Z,37.10
2019-02-22T22:55:56.180Z,38.08
2019-02-22T22:58:30.326Z,37.50
2019-02-22T23:01:31.139Z,35.75
2019-02-22T23:04:05.513Z,36.80
2019-02-22T23:06:39.572Z,36.83
2019-02-22T23:09:19.290Z,38.25
2019-02-22T23:11:54.077Z,35.08
2019-02-22T23:14:28.378Z,38.00
2019-02-22T23:17:02.493Z,35.88
2019-02-22T23:19:36.731Z,38.78
2019-02-22T23:22:10.935Z,35.40
2019-02-22T23:24:45.477Z,34.80
2019-02-22T23:27:19.537Z,35.60
2019-02-22T23:29:54.872Z,36.70
2019-02-22T23:32:29.072Z,36.13
2019-02-22T23:35:03.249Z,36.65
2019-02-22T23:37:38.512Z,36.33
2019-02-22T23:40:12.663Z,35.85
2019-02-22T23:42:46.745Z,36.73
2019-02-22T23:45:20.893Z,35.63
2019-02-22T23:47:55.153Z,35.25
2019-02-22T23:50:29.553Z,35.25
2019-02-22T23:53:03.691Z,36.28
2019-02-22T23:55:37.881Z,34.03
2019-02-22T23:58:12.093Z,34.92
